< < Back
Terminal Aerodrome Forecast


Current Version              Previous Versions:   1  2  3  4  5  6  7  8  9  

Terminal Aerodrome Forecast

326
FTUS44 KBMX 262300
TAFBHM
TAF
KBHM 262335Z 2700/2724 29008KT P6SM SKC
     FM270300 26004KT P6SM BKN100
     FM270600 26004KT P6SM SCT025 BKN040
      TEMPO 2708/2712 BKN015
     FM271500 33010G18KT P6SM SCT030=

Latest METAR

174
SAUS70 KWBC 271400
MTRBHM
METAR KBHM 271353Z 00000KT 10SM CLR 03/01 A3001 RMK AO2 SLP164
T00330006


USA.gov is the U.S. government's official web portal to all federal, state and local government web resources and services.